Time;durP1;ratioP1;P1;durP2;ratioP2;P2;SDS_P1;SDS_P2;PMS_P1;PMS_P2;Temp;Humidity;BMP_temperature;BMP_pressure;BME280_temperature;BME280_humidity;BME280_pressure;Samples;Min_cycle;Max_cycle;Signal;HPM_P1;HPM_P2
2022/06/01 00:01:51;;;;;;;10.40;7.50;;;17.60;99.90;;;17.89;72.83;95108.25;5046591;28;20455;-54
2022/06/01 00:04:19;;;;;;;10.43;8.30;;;17.60;99.90;;;17.87;73.28;95117.38;5040771;28;20525;-54
2022/06/01 00:06:46;;;;;;;9.30;8.40;;;17.50;99.90;;;17.84;72.81;95117.72;5044021;28;20456;-53
2022/06/01 00:09:14;;;;;;;12.37;7.70;;;17.50;99.90;;;17.79;72.82;95107.63;5045467;28;21028;-54
2022/06/01 00:11:42;;;;;;;12.70;7.73;;;17.50;99.90;;;17.77;73.12;95112.31;5043055;28;20487;-54
2022/06/01 00:14:09;;;;;;;12.87;7.63;;;17.40;99.90;;;17.73;73.64;95111.81;5044841;28;20494;-54
2022/06/01 00:16:36;;;;;;;21.07;8.80;;;17.40;99.90;;;17.71;73.75;95119.16;5041728;28;20471;-52
2022/06/01 00:19:07;;;;;;;9.40;8.27;;;17.40;99.90;;;17.70;73.74;95106.84;5046200;28;20460;-54
2022/06/01 00:22:11;;;;;;;10.97;8.20;;;17.40;99.90;;;17.68;73.93;95105.41;5041350;28;20452;-54
2022/06/01 00:24:23;;;;;;;15.43;9.00;;;17.30;99.90;;;17.67;74.01;95112.53;5040305;28;20530;-54
2022/06/01 00:26:51;;;;;;;16.27;9.37;;;17.30;99.90;;;17.67;73.82;95117.84;5040876;28;20456;-54
2022/06/01 00:29:18;;;;;;;19.30;10.43;;;17.30;99.90;;;17.65;73.79;95111.06;5042373;28;20594;-53
2022/06/01 00:31:46;;;;;;;18.03;10.37;;;17.30;99.90;;;17.64;73.79;95112.06;5042939;28;20847;-54
2022/06/01 00:34:13;;;;;;;12.80;9.43;;;17.30;99.90;;;17.61;73.59;95107.91;5038118;28;20695;-54
2022/06/01 00:36:40;;;;;;;18.30;10.80;;;17.30;99.90;;;17.58;73.50;95108.28;5040000;28;20460;-56
2022/06/01 00:39:08;;;;;;;11.10;9.70;;;17.30;99.90;;;17.56;74.14;95113.75;5042483;28;20954;-52
2022/06/01 00:41:36;;;;;;;18.00;11.07;;;17.20;99.90;;;17.57;73.91;95127.91;5043367;28;20468;-52
2022/06/01 00:44:04;;;;;;;23.00;10.93;;;17.20;99.90;;;17.58;74.06;95118.09;5043161;28;20575;-53
2022/06/01 00:46:32;;;;;;;17.30;9.83;;;17.20;99.90;;;17.60;74.62;95116.91;5044856;28;20510;-53
2022/06/01 00:49:01;;;;;;;15.97;9.97;;;17.30;99.90;;;17.63;74.84;95121.03;5038110;28;20525;-53
2022/06/01 00:51:29;;;;;;;14.60;9.60;;;17.30;99.90;;;17.67;74.94;95117.03;5041292;28;20853;-53
2022/06/01 00:53:57;;;;;;;10.20;8.67;;;17.30;99.90;;;17.69;75.14;95117.66;5044196;28;20498;-54
2022/06/01 00:56:27;;;;;;;15.20;10.30;;;17.30;99.90;;;17.72;75.02;95109.34;5043054;28;20487;-54
2022/06/01 00:58:57;;;;;;;15.87;10.97;;;17.30;99.90;;;17.74;74.98;95116.13;5043247;28;20521;-55
2022/06/01 01:01:24;;;;;;;17.00;11.77;;;17.40;99.90;;;17.75;74.90;95114.31;5041174;28;20468;-54
2022/06/01 01:03:56;;;;;;;12.70;10.93;;;17.40;99.90;;;17.77;74.13;95104.31;5042442;28;20459;-53
2022/06/01 01:06:24;;;;;;;14.03;10.30;;;17.40;99.90;;;17.77;74.69;95106.97;5041418;28;20476;-53
2022/06/01 01:08:52;;;;;;;14.60;11.63;;;17.40;99.90;;;17.78;74.16;95097.97;5044625;28;20872;-54
2022/06/01 01:11:21;;;;;;;18.83;12.57;;;17.40;99.90;;;17.79;74.08;95101.50;5042072;28;20500;-52
2022/06/01 01:13:49;;;;;;;14.80;10.93;;;17.40;99.90;;;17.77;74.40;95099.00;5042754;28;20558;-55
2022/06/01 01:16:20;;;;;;;25.80;12.03;;;17.40;99.90;;;17.74;74.37;95091.38;5040394;28;20536;-52
2022/06/01 01:18:48;;;;;;;19.60;12.70;;;17.40;99.90;;;17.70;73.87;95084.75;5042988;28;20464;-54
2022/06/01 01:21:21;;;;;;;17.40;10.73;;;17.40;99.90;;;17.66;74.06;95086.09;5041252;28;20549;-53
2022/06/01 01:23:53;;;;;;;21.93;11.03;;;17.30;99.90;;;17.63;74.11;95084.66;5038380;28;20864;-53
2022/06/01 01:26:21;;;;;;;13.70;10.40;;;17.30;99.90;;;17.58;74.14;95083.50;5041066;28;20491;-52
2022/06/01 01:28:49;;;;;;;19.47;11.40;;;17.30;99.90;;;17.54;74.56;95088.38;5042013;28;20517;-55
2022/06/01 01:31:18;;;;;;;15.10;11.50;;;17.20;99.90;;;17.52;74.67;95083.22;5041856;28;20482;-54
2022/06/01 01:33:46;;;;;;;12.60;11.10;;;17.20;99.90;;;17.53;74.87;95082.22;5040656;28;20907;-52
2022/06/01 01:36:14;;;;;;;14.60;10.80;;;17.20;99.90;;;17.55;75.03;95080.22;5046463;28;21031;-52
2022/06/01 01:38:44;;;;;;;15.60;11.13;;;17.20;99.90;;;17.58;75.32;95075.53;5045307;28;20456;-56
2022/06/01 01:41:15;;;;;;;20.93;11.20;;;17.20;99.90;;;17.59;74.79;95071.88;5044461;28;20593;-53
2022/06/01 01:43:51;;;;;;;13.20;7.67;;;17.20;99.90;;;17.60;74.68;95076.19;5044595;28;20447;-53
2022/06/01 01:46:18;;;;;;;13.03;7.90;;;17.20;99.90;;;17.60;74.27;95074.38;5047398;28;20483;-56
2022/06/01 01:48:46;;;;;;;20.97;8.70;;;17.20;99.90;;;17.59;74.53;95075.34;5044030;28;20464;-54
2022/06/01 01:51:14;;;;;;;11.60;10.40;;;17.30;99.90;;;17.59;74.24;95074.53;5046022;28;20472;-53
2022/06/01 01:53:41;;;;;;;9.07;8.17;;;17.20;99.90;;;17.58;73.94;95070.22;5047667;28;20498;-53
2022/06/01 01:56:24;;;;;;;10.07;8.47;;;17.20;99.90;;;17.52;73.87;95071.75;5040556;28;20493;-54
2022/06/01 01:59:05;;;;;;;9.97;5.97;;;17.20;99.90;;;17.46;73.27;95075.97;5046940;28;20443;-54
2022/06/01 02:01:40;;;;;;;8.33;5.97;;;17.20;99.90;;;17.41;73.48;95072.16;5045626;28;20529;-53
2022/06/01 02:06:03;;;;;;;8.57;5.27;;;17.10;99.90;;;17.34;73.49;95075.53;5044531;28;21002;-54
2022/06/01 02:07:03;;;;;;;9.53;5.30;;;17.00;99.90;;;17.32;73.58;95082.03;5040262;28;20972;-54
2022/06/01 02:12:41;;;;;;;32.13;6.07;;;17.00;99.90;;;17.27;72.98;95077.22;5044701;28;20509;-53
2022/06/01 02:15:05;;;;;;;5.47;5.07;;;16.90;99.90;;;17.12;73.09;95090.47;5046521;28;20502;-54
2022/06/01 02:17:36;;;;;;;5.93;5.43;;;16.80;99.90;;;17.12;73.58;95081.69;5046461;28;20456;-54
2022/06/01 02:20:08;;;;;;;4.50;4.20;;;16.80;99.90;;;17.09;73.69;95084.69;5046617;28;20464;-55
2022/06/01 02:22:36;;;;;;;5.67;5.17;;;16.80;99.90;;;17.07;74.00;95079.53;5045199;28;20448;-53
2022/06/01 02:25:03;;;;;;;5.30;4.90;;;16.70;99.90;;;17.05;74.00;95084.19;5046260;28;20833;-54
2022/06/01 02:27:30;;;;;;;7.93;4.80;;;16.70;99.90;;;17.03;73.69;95081.69;5044389;28;20826;-55
2022/06/01 02:30:03;;;;;;;4.50;4.20;;;16.80;99.90;;;17.02;73.65;95081.88;5044423;28;20487;-53
2022/06/01 02:32:32;;;;;;;6.40;4.90;;;16.70;99.90;;;16.99;73.94;95076.91;5044573;28;20513;-54
2022/06/01 02:35:00;;;;;;;4.77;4.47;;;16.70;99.90;;;16.98;74.03;95075.28;5043160;28;21269;-54
2022/06/01 02:37:29;;;;;;;4.03;3.63;;;16.70;99.90;;;16.97;73.69;95084.22;5043257;28;20523;-55
2022/06/01 02:39:57;;;;;;;4.27;3.97;;;16.60;99.90;;;16.94;74.11;95088.06;5044949;28;20503;-54
2022/06/01 02:42:25;;;;;;;4.50;4.20;;;16.70;99.90;;;16.94;73.88;95096.03;5043199;28;20518;-54
2022/06/01 02:44:54;;;;;;;6.10;4.67;;;16.70;99.90;;;16.94;73.75;95093.38;5045835;28;20479;-53
2022/06/01 02:47:22;;;;;;;14.73;5.17;;;16.60;99.90;;;16.92;73.99;95091.91;5045804;28;20483;-53
2022/06/01 02:49:50;;;;;;;5.83;4.97;;;16.60;99.90;;;16.92;73.89;95091.91;5046065;28;21027;-54
2022/06/01 02:52:18;;;;;;;5.03;4.60;;;16.60;99.90;;;16.91;73.79;95096.38;5044208;28;20533;-53
2022/06/01 02:54:45;;;;;;;5.83;5.17;;;16.60;99.90;;;16.91;74.16;95091.06;5044807;28;20499;-54
2022/06/01 02:57:14;;;;;;;6.33;5.83;;;16.60;99.90;;;16.93;74.19;95099.72;5042895;28;20984;-53
2022/06/01 02:59:41;;;;;;;7.73;5.40;;;16.60;99.90;;;16.93;74.13;95099.72;5046223;28;20709;-53
2022/06/01 03:02:09;;;;;;;6.00;5.40;;;16.60;99.90;;;16.95;74.33;95097.69;5043098;28;20464;-54
2022/06/01 03:04:37;;;;;;;9.23;5.13;;;16.60;99.90;;;16.94;74.33;95100.53;5043255;28;20555;-54
2022/06/01 03:07:05;;;;;;;11.90;6.60;;;16.70;99.90;;;16.95;74.28;95107.50;5046720;28;20712;-55
2022/06/01 03:09:33;;;;;;;7.03;6.43;;;16.70;99.90;;;16.96;74.16;95111.81;5040520;28;20899;-56
2022/06/01 03:12:00;;;;;;;6.13;5.63;;;16.60;99.90;;;16.95;74.16;95104.84;5043094;28;20546;-54
2022/06/01 03:14:28;;;;;;;7.37;6.60;;;16.60;99.90;;;16.95;73.83;95107.50;5042872;28;20499;-53
2022/06/01 03:16:56;;;;;;;7.93;5.93;;;16.70;99.90;;;16.94;73.74;95101.34;5044852;28;20462;-53
2022/06/01 03:19:23;;;;;;;8.80;6.73;;;16.60;99.90;;;16.93;73.36;95104.16;5043275;28;20609;-55
2022/06/01 03:21:51;;;;;;;7.13;6.37;;;16.60;99.90;;;16.92;73.68;95110.50;5042490;28;20467;-52
2022/06/01 03:24:20;;;;;;;11.50;6.43;;;16.60;99.90;;;16.89;73.49;95108.19;5041395;28;20464;-52
2022/06/01 03:26:47;;;;;;;15.87;6.87;;;16.60;99.90;;;16.87;73.59;95116.34;5043123;28;20980;-55
2022/06/01 03:29:14;;;;;;;8.43;4.93;;;16.60;99.90;;;16.86;73.56;95114.69;5043704;28;21006;-53
2022/06/01 03:31:42;;;;;;;6.70;5.63;;;16.60;99.90;;;16.85;73.43;95111.16;5043944;28;20538;-55
2022/06/01 03:34:10;;;;;;;5.70;5.20;;;16.50;99.90;;;16.87;73.36;95111.03;5042326;28;20497;-53
2022/06/01 03:36:37;;;;;;;8.43;5.57;;;16.60;99.90;;;16.87;73.37;95110.19;5042372;28;20456;-53
2022/06/01 03:39:04;;;;;;;7.13;6.13;;;16.60;99.90;;;16.87;73.27;95123.47;5042687;28;20452;-53
2022/06/01 03:41:33;;;;;;;7.73;5.87;;;16.60;99.90;;;16.86;73.53;95122.66;5045466;28;20835;-54
2022/06/01 03:46:45;;;;;;;12.13;7.53;;;16.60;99.90;;;16.89;73.51;95124.13;5046115;28;20439;-53
2022/06/01 03:49:12;;;;;;;18.40;9.00;;;16.60;99.90;;;16.91;73.58;95114.97;5044640;28;20460;-54
2022/06/01 03:51:40;;;;;;;11.50;8.30;;;16.60;99.90;;;16.95;74.04;95118.94;5043660;28;20448;-54
2022/06/01 03:54:07;;;;;;;21.00;9.40;;;16.60;99.90;;;16.99;73.78;95127.41;5045709;28;20491;-55
2022/06/01 03:56:35;;;;;;;15.80;9.70;;;16.60;99.90;;;17.01;73.80;95126.22;5045074;28;21027;-55
2022/06/01 03:59:03;;;;;;;15.13;10.17;;;16.70;99.90;;;17.05;73.96;95117.91;5041402;28;20511;-55
2022/06/01 04:01:30;;;;;;;15.87;11.07;;;16.70;99.90;;;17.11;73.83;95127.84;5042001;28;20803;-55
2022/06/01 04:03:57;;;;;;;13.27;10.10;;;16.80;99.90;;;17.16;73.84;95128.16;5043408;28;20456;-54
2022/06/01 04:06:25;;;;;;;19.70;10.63;;;16.80;99.90;;;17.22;74.17;95123.97;5043176;28;20477;-52
2022/06/01 04:08:52;;;;;;;22.30;10.60;;;16.90;99.90;;;17.30;73.88;95131.91;5044387;28;20525;-55
2022/06/01 04:11:19;;;;;;;17.23;9.40;;;16.90;99.90;;;17.36;74.09;95129.34;5043498;28;20460;-55
2022/06/01 04:13:48;;;;;;;16.20;10.90;;;17.00;99.90;;;17.42;73.64;95125.16;5043983;28;20495;-54
2022/06/01 04:16:18;;;;;;;15.90;10.60;;;17.10;99.90;;;17.47;73.67;95122.00;5043105;28;20513;-54
2022/06/01 04:18:46;;;;;;;15.37;10.73;;;17.10;99.90;;;17.51;73.62;95131.28;5038807;28;20452;-54
2022/06/01 04:21:13;;;;;;;17.40;11.20;;;17.20;99.90;;;17.54;73.37;95131.75;5041243;28;20480;-56
2022/06/01 04:23:40;;;;;;;13.77;9.93;;;17.20;99.90;;;17.58;73.38;95129.53;5041258;28;20476;-53
2022/06/01 04:26:08;;;;;;;12.13;9.70;;;17.30;99.90;;;17.62;73.35;95132.69;5040969;28;20485;-53
2022/06/01 04:28:35;;;;;;;16.00;10.13;;;17.30;99.90;;;17.63;73.03;95126.34;5038665;28;20468;-52
2022/06/01 04:31:04;;;;;;;14.60;10.60;;;17.30;99.90;;;17.66;73.28;95136.66;5042065;28;20481;-55
2022/06/01 04:33:31;;;;;;;15.80;11.17;;;17.30;99.90;;;17.67;73.07;95133.81;5042191;28;20452;-53
2022/06/01 04:35:58;;;;;;;15.27;10.77;;;17.40;99.90;;;17.71;72.67;95142.28;5043233;28;20906;-55
2022/06/01 04:38:26;;;;;;;13.47;10.10;;;17.40;99.90;;;17.73;73.02;95146.41;5043123;28;20987;-55
2022/06/01 04:40:53;;;;;;;14.90;10.27;;;17.40;99.90;;;17.77;73.00;95144.22;5042265;28;20918;-52
2022/06/01 04:43:22;;;;;;;12.57;9.20;;;17.40;99.90;;;17.80;72.83;95140.38;5039413;28;20463;-54
2022/06/01 04:45:51;;;;;;;21.67;12.57;;;17.40;99.90;;;17.82;72.77;95136.53;5042492;28;20463;-54
2022/06/01 04:48:20;;;;;;;28.43;12.97;;;17.50;99.90;;;17.83;72.45;95148.84;5041354;28;20550;-55
2022/06/01 04:50:47;;;;;;;19.23;12.10;;;17.50;99.90;;;17.85;72.81;95149.50;5043211;28;21118;-56
2022/06/01 04:53:15;;;;;;;19.00;12.83;;;17.50;99.90;;;17.85;72.09;95144.16;5042120;28;20459;-55
2022/06/01 04:55:43;;;;;;;22.40;14.40;;;17.50;99.90;;;17.85;72.27;95149.50;5042090;28;20491;-54
2022/06/01 04:58:11;;;;;;;16.87;12.00;;;17.50;99.90;;;17.84;72.05;95158.47;5042404;28;20486;-55
2022/06/01 05:00:38;;;;;;;15.57;11.77;;;17.50;99.90;;;17.85;72.18;95157.47;5043689;28;21022;-56
2022/06/01 05:03:06;;;;;;;22.40;12.63;;;17.50;99.90;;;17.84;71.88;95161.13;5040681;28;20838;-53
2022/06/01 05:05:37;;;;;;;17.07;12.77;;;17.50;99.90;;;17.84;72.31;95166.44;5043747;28;20471;-54
2022/06/01 05:08:05;;;;;;;13.13;11.03;;;17.50;99.90;;;17.86;71.92;95161.78;5042645;28;20525;-53
2022/06/01 05:10:32;;;;;;;17.70;12.00;;;17.50;99.90;;;17.88;72.50;95167.78;5039503;28;20560;-53
2022/06/01 05:13:00;;;;;;;18.60;11.03;;;17.50;99.90;;;17.87;71.89;95162.63;5043452;28;20502;-54
2022/06/01 05:15:27;;;;;;;18.93;13.77;;;17.60;99.90;;;17.85;72.40;95165.44;5042279;28;20530;-56
2022/06/01 05:17:54;;;;;;;15.67;11.50;;;17.60;99.90;;;17.85;71.81;95165.44;5043512;28;20917;-54
2022/06/01 05:20:21;;;;;;;17.70;11.63;;;17.50;99.90;;;17.89;72.15;95166.78;5042836;28;20993;-55
2022/06/01 05:22:50;;;;;;;20.17;12.57;;;17.60;99.90;;;17.96;72.47;95158.91;5037676;28;20470;-54
2022/06/01 05:25:17;;;;;;;19.37;13.47;;;17.60;99.90;;;18.04;72.27;95155.38;5040285;28;20468;-55
2022/06/01 05:27:45;;;;;;;21.30;13.70;;;17.70;99.90;;;18.13;72.44;95162.28;5042263;28;20493;-54
2022/06/01 05:30:13;;;;;;;31.27;15.07;;;17.80;99.90;;;18.23;72.36;95162.88;5042678;28;20992;-54
2022/06/01 05:32:40;;;;;;;21.00;14.33;;;17.90;99.90;;;18.35;71.99;95157.91;5042962;28;20465;-55
2022/06/01 05:35:09;;;;;;;21.20;15.37;;;18.00;99.90;;;18.45;71.85;95155.81;5044478;28;20578;-53
2022/06/01 05:37:36;;;;;;;25.27;15.67;;;18.00;99.90;;;18.58;71.69;95143.72;5043059;28;20466;-53
2022/06/01 05:40:06;;;;;;;30.33;17.07;;;18.10;99.90;;;18.68;70.66;95151.44;5041816;28;20460;-54
2022/06/01 05:42:33;;;;;;;23.30;16.60;;;18.30;99.90;;;18.76;70.95;95152.19;5037327;28;20451;-54
2022/06/01 05:45:00;;;;;;;28.10;15.33;;;18.40;99.90;;;18.86;70.35;95148.44;5043532;28;20472;-57
2022/06/01 05:47:28;;;;;;;25.23;16.00;;;18.40;99.90;;;18.96;70.34;95140.97;5044969;28;20455;-53
2022/06/01 05:49:55;;;;;;;28.60;16.93;;;18.50;99.90;;;19.08;70.45;95144.00;5042406;28;20548;-55
2022/06/01 05:52:22;;;;;;;22.87;16.20;;;18.60;99.90;;;19.18;70.30;95141.88;5042810;28;20922;-54
2022/06/01 05:54:50;;;;;;;25.70;15.90;;;18.70;99.90;;;19.28;69.83;95149.59;5041245;28;20499;-54
2022/06/01 05:57:18;;;;;;;25.67;18.20;;;18.80;99.90;;;19.36;69.87;95149.47;5041973;28;20830;-54
2022/06/01 05:59:45;;;;;;;32.83;17.50;;;18.90;99.90;;;19.44;69.39;95148.53;5042827;28;20988;-53
2022/06/01 06:02:13;;;;;;;32.10;17.47;;;19.00;99.90;;;19.59;70.12;95149.31;5040847;28;20968;-53
2022/06/01 06:04:40;;;;;;;42.83;16.87;;;19.10;99.90;;;19.79;69.97;95143.41;5039135;28;20484;-54
2022/06/01 06:07:07;;;;;;;31.33;17.07;;;19.30;99.90;;;19.98;70.01;95141.94;5043368;28;20444;-55
2022/06/01 06:09:35;;;;;;;32.37;16.57;;;19.40;99.90;;;20.18;69.50;95148.25;5041243;28;20486;-54
2022/06/01 06:12:02;;;;;;;26.53;17.50;;;19.70;99.90;;;20.38;69.67;95137.72;5042194;28;20466;-53
2022/06/01 06:14:31;;;;;;;28.40;18.50;;;19.90;99.90;;;20.57;69.11;95146.09;5041336;28;21029;-53
2022/06/01 06:16:58;;;;;;;26.60;17.40;;;20.10;99.90;;;20.76;68.53;95145.44;5041147;28;20494;-55
2022/06/01 06:19:25;;;;;;;28.40;16.33;;;20.30;99.90;;;20.95;67.94;95149.22;5041359;28;20479;-54
2022/06/01 06:21:53;;;;;;;24.60;17.67;;;20.50;99.90;;;21.13;67.55;95147.88;5043055;28;20456;-55
2022/06/01 06:24:22;;;;;;;34.63;18.17;;;20.60;99.90;;;21.30;67.16;95145.69;5041819;28;20534;-53
2022/06/01 06:26:49;;;;;;;36.40;19.07;;;20.80;99.90;;;21.47;66.70;95147.00;5046840;28;20447;-54
2022/06/01 06:29:18;;;;;;;29.43;19.33;;;21.00;99.90;;;21.66;66.48;95144.63;5044289;28;20837;-55
2022/06/01 06:31:47;;;;;;;26.13;17.17;;;21.10;99.80;;;21.80;65.58;95148.97;5044923;28;20486;-54
2022/06/01 06:34:14;;;;;;;23.27;15.83;;;21.30;99.30;;;21.96;65.28;95145.06;5046846;28;20463;-53
2022/06/01 06:36:44;;;;;;;39.43;17.90;;;21.50;99.10;;;22.10;65.11;95143.22;5046806;28;20463;-52
2022/06/01 06:39:11;;;;;;;44.10;16.53;;;21.60;99.00;;;22.27;64.23;95135.63;5045966;28;20995;-54
2022/06/01 06:41:38;;;;;;;22.53;15.47;;;21.80;98.50;;;22.42;63.88;95139.97;5045223;28;20448;-54
2022/06/01 06:44:07;;;;;;;30.23;14.93;;;21.90;98.00;;;22.52;63.70;95135.84;5044669;28;20449;-55
2022/06/01 06:46:34;;;;;;;25.17;14.87;;;22.00;97.80;;;22.63;61.40;95139.75;5047044;28;20456;-51
2022/06/01 06:49:03;;;;;;;22.13;15.17;;;22.10;96.20;;;22.70;62.33;95139.75;5046224;28;20464;-55
2022/06/01 06:51:30;;;;;;;16.60;14.10;;;22.20;96.30;;;22.78;62.32;95136.84;5042143;28;20474;-54
2022/06/01 06:53:57;;;;;;;18.53;14.70;;;22.30;96.80;;;22.92;61.76;95129.59;5045289;28;20535;-55
2022/06/01 06:56:26;;;;;;;19.07;13.63;;;22.40;96.50;;;23.06;62.25;95122.31;5046289;28;20495;-54
2022/06/01 06:58:53;;;;;;;23.43;13.70;;;22.50;96.40;;;23.21;61.30;95119.44;5044368;28;20539;-55
2022/06/01 07:01:21;;;;;;;17.60;13.27;;;22.70;96.30;;;23.33;61.54;95116.88;5042459;28;20708;-54
2022/06/01 07:03:48;;;;;;;20.87;14.47;;;22.80;96.10;;;;;;5044899;28;20452;-56
2022/06/01 07:06:18;;;;;;;27.40;14.73;;;22.90;96.00;;;23.61;60.17;95108.50;5044263;28;20472;-52
2022/06/01 07:08:48;;;;;;;18.73;13.33;;;23.10;95.30;;;23.74;60.26;95112.97;5045245;28;20447;-55
2022/06/01 07:11:17;;;;;;;21.33;13.70;;;23.20;95.40;;;23.85;60.37;95117.66;5043253;28;20914;-54
2022/06/01 07:13:44;;;;;;;13.20;11.03;;;23.30;95.20;;;23.92;59.85;95113.06;5046248;28;20593;-54
2022/06/01 07:16:14;;;;;;;20.27;11.83;;;23.40;94.90;;;24.04;59.31;95117.75;5042539;28;20499;-54
2022/06/01 07:18:43;;;;;;;21.03;11.20;;;23.50;94.50;;;24.16;58.69;95121.38;5043422;28;20455;-55
2022/06/01 07:21:10;;;;;;;14.40;11.27;;;23.60;94.50;;;24.30;58.91;95122.91;5037758;28;20480;-56
2022/06/01 07:23:39;;;;;;;19.80;11.27;;;23.70;94.20;;;24.47;58.66;95119.69;5046102;28;20455;-54
2022/06/01 07:26:08;;;;;;;13.40;9.33;;;23.90;94.00;;;24.63;59.01;95116.47;5042769;28;20547;-54
2022/06/01 07:28:36;;;;;;;12.63;10.20;;;24.10;94.00;;;24.81;58.01;95112.97;5043111;28;20452;-55
2022/06/01 07:31:04;;;;;;;16.60;9.80;;;24.20;93.60;;;25.00;57.41;95112.97;5040654;28;20495;-54
2022/06/01 07:33:31;;;;;;;18.93;10.60;;;24.40;93.20;;;25.12;58.18;95105.78;5043108;28;20455;-54
2022/06/01 07:35:58;;;;;;;21.50;9.33;;;24.50;93.20;;;25.26;57.83;95111.84;5043729;28;20588;-56
2022/06/01 07:44:00;;;;;;;17.93;9.30;;;25.00;92.00;;;25.68;56.65;95095.78;5041458;28;20979;-54
2022/06/01 07:46:28;;;;;;;21.53;10.47;;;25.10;91.80;;;25.81;55.54;95099.31;5046509;28;20944;-55
2022/06/01 07:48:55;;;;;;;17.83;9.00;;;25.20;91.50;;;25.94;55.33;95102.66;5043739;28;20459;-54
2022/06/01 07:51:22;;;;;;;24.90;8.87;;;25.30;91.20;;;26.11;55.05;95110.94;5046402;28;20616;-55
2022/06/01 07:53:50;;;;;;;21.20;11.10;;;25.50;90.80;;;26.29;54.94;95106.53;5043375;28;20455;-54
2022/06/01 07:56:18;;;;;;;12.03;10.27;;;25.70;90.70;;;26.42;54.96;95106.28;5041913;28;20568;-56
2022/06/01 07:58:46;;;;;;;21.47;11.33;;;25.80;90.30;;;26.52;54.44;95115.69;5044094;28;20470;-55
2022/06/01 08:01:13;;;;;;;13.87;10.83;;;25.90;90.10;;;26.56;54.12;95109.56;5043448;28;20546;-54
2022/06/01 08:03:40;;;;;;;24.03;10.70;;;26.00;89.30;;;26.63;53.78;95106.75;5043063;28;20483;-54
2022/06/01 08:06:08;;;;;;;17.53;11.83;;;26.10;88.60;;;26.67;53.77;95116.06;5045348;28;20856;-55
2022/06/01 08:08:35;;;;;;;20.17;10.20;;;26.10;87.80;;;26.64;53.19;95111.91;5037872;28;20451;-55
2022/06/01 08:11:03;;;;;;;14.83;10.43;;;26.10;87.00;;;26.59;52.92;95113.69;5044573;28;20475;-55
2022/06/01 08:13:30;;;;;;;21.30;11.13;;;26.10;86.00;;;26.55;52.88;95112.50;5043287;28;20538;-53
2022/06/01 08:15:58;;;;;;;21.70;11.00;;;26.00;85.90;;;26.56;52.94;95108.75;5044844;28;20494;-56
2022/06/01 08:18:26;;;;;;;19.93;10.77;;;26.00;85.90;;;26.57;52.51;95099.59;5043454;28;20843;-55
2022/06/01 08:20:53;;;;;;;17.50;9.30;;;26.00;85.30;;;26.60;52.38;95101.81;5044321;28;20483;-53
2022/06/01 08:23:21;;;;;;;25.70;12.47;;;26.00;85.40;;;26.64;52.46;95103.00;5044920;28;20605;-55
2022/06/01 08:25:49;;;;;;;18.00;10.00;;;26.10;85.20;;;26.70;52.26;95104.00;5041413;28;21007;-55
2022/06/01 08:28:17;;;;;;;19.20;11.03;;;26.10;84.70;;;26.76;51.86;95097.66;5038562;28;20744;-54
2022/06/01 08:30:47;;;;;;;15.47;8.60;;;26.20;83.40;;;26.88;51.78;95097.63;5043157;28;20475;-53
2022/06/01 08:33:14;;;;;;;13.57;7.23;;;26.30;83.30;;;27.06;51.75;95100.19;5041814;28;20459;-55
2022/06/01 08:35:44;;;;;;;12.60;7.10;;;26.50;83.80;;;27.29;51.47;95095.78;5041887;28;20543;-54
2022/06/01 08:38:11;;;;;;;16.60;7.73;;;26.70;83.20;;;27.54;51.34;95101.75;5043644;28;20893;-55
2022/06/01 08:40:49;;;;;;;22.13;8.87;;;26.90;82.70;;;27.85;50.53;95096.06;5042994;28;20464;-55
2022/06/01 08:43:17;;;;;;;13.30;8.80;;;27.20;82.00;;;28.09;49.84;95094.09;5044361;28;20447;-56
2022/06/01 08:45:50;;;;;;;19.77;9.40;;;27.50;79.80;;;28.30;49.61;95097.13;5041806;28;20485;-53
2022/06/01 08:48:20;;;;;;;9.40;7.73;;;27.70;78.70;;;28.48;49.36;95102.28;5040992;28;20867;-54
2022/06/01 08:50:47;;;;;;;16.70;8.57;;;27.90;78.30;;;28.70;49.01;95090.75;5043428;28;20633;-55
2022/06/01 08:53:15;;;;;;;27.03;8.90;;;28.10;77.40;;;28.92;48.04;95094.31;5041916;28;20524;-56
2022/06/01 08:55:48;;;;;;;14.73;6.57;;;28.30;75.90;;;29.15;48.04;95089.72;5043535;28;20610;-55
2022/06/01 08:58:18;;;;;;;19.63;6.77;;;28.50;75.60;;;29.35;48.13;95086.47;5040102;28;20815;-55
2022/06/01 09:00:53;;;;;;;11.50;7.30;;;28.70;74.10;;;29.56;46.64;95095.69;5043361;28;20570;-56
2022/06/01 09:03:27;;;;;;;13.07;6.47;;;28.90;72.60;;;29.73;45.59;95097.47;5041823;28;20454;-56
2022/06/01 09:05:57;;;;;;;8.67;6.67;;;29.10;70.20;;;29.89;46.12;95096.59;5040554;28;20554;-54
2022/06/01 09:08:30;;;;;;;10.83;6.30;;;29.30;69.50;;;30.01;45.27;95094.53;5043185;28;20459;-55
2022/06/01 09:11:03;;;;;;;11.40;7.13;;;29.40;68.70;;;30.15;45.68;95096.84;5044310;28;20229;-54
2022/06/01 09:13:43;;;;;;;13.30;7.43;;;29.50;68.00;;;30.20;45.04;95091.44;5040807;28;20444;-56
2022/06/01 09:16:15;;;;;;;14.37;8.37;;;29.60;66.90;;;30.15;45.23;95092.22;5041334;28;20502;-55
2022/06/01 09:18:45;;;;;;;17.90;7.83;;;29.60;66.50;;;30.16;45.26;95093.03;5043868;28;20832;-55
2022/06/01 09:24:09;;;;;;;18.60;7.03;;;29.60;66.20;;;30.22;44.56;95078.44;5042430;28;20215;-54
2022/06/01 09:26:36;;;;;;;18.93;6.30;;;29.60;63.90;;;30.25;42.97;95080.63;5041800;28;20880;-54
2022/06/01 09:29:03;;;;;;;17.00;6.20;;;29.70;61.50;;;30.27;44.06;95075.78;5043200;28;20216;-53
2022/06/01 09:31:37;;;;;;;21.53;7.77;;;29.70;63.10;;;30.37;43.94;95075.03;5042571;28;20209;-55
2022/06/01 09:34:15;;;;;;;13.87;5.70;;;29.80;63.10;;;30.46;43.38;95078.09;5038491;28;20308;-55
2022/06/01 09:36:57;;;;;;;9.07;5.77;;;29.80;62.20;;;30.54;43.30;95080.34;5043654;28;20310;-55
2022/06/01 09:39:25;;;;;;;12.93;5.83;;;29.90;62.20;;;30.63;44.40;95073.34;5040834;28;20322;-56
2022/06/01 09:41:53;;;;;;;10.93;5.33;;;30.00;62.00;;;30.72;43.31;95071.78;5042561;28;20200;-54
2022/06/01 09:44:31;;;;;;;6.90;4.60;;;30.10;61.20;;;30.83;42.91;95066.41;5043266;28;20322;-56
2022/06/01 09:47:00;;;;;;;14.23;5.20;;;30.20;59.70;;;30.87;42.55;95078.38;5042228;28;20304;-56
2022/06/01 09:49:29;;;;;;;11.90;5.47;;;30.30;58.80;;;30.91;42.13;95071.34;5042376;28;20764;-55
2022/06/01 09:52:00;;;;;;;9.30;4.70;;;30.30;58.00;;;30.97;42.50;95064.03;5041180;28;20589;-55
2022/06/01 09:54:30;;;;;;;10.73;4.80;;;30.40;58.10;;;31.05;41.88;95063.56;5042446;28;20305;-55
2022/06/01 09:56:57;;;;;;;7.23;4.27;;;30.40;57.50;;;31.08;40.09;95068.47;5046181;28;20249;-56
2022/06/01 10:07:48;;;;;;;9.20;4.63;;;30.40;55.00;;;30.96;40.72;95057.78;5047848;28;20258;-56
2022/06/01 10:10:24;;;;;;;13.57;4.20;;;30.40;54.80;;;30.94;39.24;95049.09;5046087;28;20232;-55
2022/06/01 10:12:56;;;;;;;7.10;4.57;;;30.40;54.00;;;30.96;40.16;95048.81;5044892;28;20223;-56
2022/06/01 10:15:32;;;;;;;8.57;4.20;;;30.40;54.60;;;30.99;39.18;95046.41;5047711;28;20240;-53
2022/06/01 10:18:05;;;;;;;7.60;3.37;;;30.40;54.90;;;30.99;39.62;95048.34;5043301;28;20201;-54
2022/06/01 10:20:37;;;;;;;5.80;3.83;;;30.40;53.80;;;30.95;38.55;95050.72;5047183;28;20232;-57
2022/06/01 10:23:07;;;;;;;4.93;2.60;;;30.40;52.50;;;30.89;35.11;95049.88;5043352;28;20286;-56
2022/06/01 10:25:39;;;;;;;7.83;2.37;;;30.30;47.90;;;30.87;37.00;95041.16;5043458;28;20290;-55
2022/06/01 10:28:11;;;;;;;4.30;3.10;;;30.30;50.10;;;30.91;37.28;95047.72;5046990;28;20570;-54
2022/06/01 10:30:39;;;;;;;32.97;3.43;;;30.30;50.30;;;30.97;37.30;95045.88;5042073;28;20224;-55
2022/06/01 10:33:12;;;;;;;4.90;3.17;;;30.40;50.90;;;31.05;37.42;95044.56;5040560;28;20205;-53
2022/06/01 10:35:44;;;;;;;8.30;3.70;;;30.40;50.40;;;31.09;37.08;95049.19;5044290;28;20282;-54
2022/06/01 10:38:18;;;;;;;2.95;2.50;;;30.50;50.00;;;31.12;35.91;95042.41;5045557;28;20232;-54
2022/06/01 10:40:50;;;;;;;4.17;3.20;;;30.50;50.00;;;31.08;35.20;95033.97;5042340;28;20235;-54